Time;durP1;ratioP1;P1;durP2;ratioP2;P2;SDS_P1;SDS_P2;PMS_P1;PMS_P2;Temp;Humidity;BMP_temperature;BMP_pressure;BME280_temperature;BME280_humidity;BME280_pressure;Samples;Min_cycle;Max_cycle;Signal;HPM_P1;HPM_P2
2022/10/05 00:01:44;;;;;;;9.02;4.53;;;;;;;;;;5130226;28;20027;-54
2022/10/05 00:04:30;;;;;;;9.38;4.22;;;;;;;;;;5130173;28;20031;-54
2022/10/05 00:07:10;;;;;;;5.03;4.28;;;;;;;;;;5129868;28;20102;-51
2022/10/05 00:09:41;;;;;;;6.18;5.25;;;;;;;;;;5105578;28;20070;-51
2022/10/05 00:12:41;;;;;;;4.28;3.70;;;;;;;;;;5105481;28;20108;-55
2022/10/05 00:15:32;;;;;;;8.88;5.65;;;;;;;;;;5105792;28;20096;-54
2022/10/05 00:18:26;;;;;;;;;;;;;;;;;;;;;
2022/10/05 00:20:56;;;;;;;4.63;4.18;;;;;;;;;;5106387;28;20067;-55
2022/10/05 00:24:11;;;;;;;4.90;4.15;;;;;;;;;;5108919;28;20024;-51
2022/10/05 00:27:10;;;;;;;5.50;3.97;;;;;;;;;;5012045;28;20038;-52
2022/10/05 00:29:45;;;;;;;4.70;3.85;;;;;;;;;;5015368;28;20046;-52
2022/10/05 00:32:34;;;;;;;6.20;4.15;;;;;;;;;;5028753;28;20095;-53
2022/10/05 00:35:27;;;;;;;5.05;4.00;;;;;;;;;;4988105;28;20088;-55
2022/10/05 00:38:13;;;;;;;5.20;4.13;;;;;;;;;;5028518;28;20439;-53
2022/10/05 00:47:21;;;;;;;;;;;;;;;;;;;;;
2022/10/05 00:50:22;;;;;;;4.65;3.55;;;;;;;;;;5068731;28;20057;-51
2022/10/05 00:52:54;;;;;;;9.20;3.97;;;;;;;;;;5088694;28;20863;-56
2022/10/05 00:55:42;;;;;;;6.90;4.03;;;;;;;;;;5088538;28;20361;-54
2022/10/05 00:58:47;;;;;;;5.22;4.55;;;;;;;;;;5144062;27;20023;-53
2022/10/05 01:01:35;;;;;;;4.82;3.70;;;;;;;;;;5048628;28;20032;-53
2022/10/05 01:07:45;;;;;;;4.50;3.60;;;;;;;;;;5115290;27;20045;-55
2022/10/05 01:13:48;;;;;;;4.63;3.88;;;;;;;;;;5143658;27;20070;-55
2022/10/05 01:16:35;;;;;;;6.55;4.72;;;;;;;;;;5151505;27;20035;-55
2022/10/05 01:19:33;;;;;;;7.05;4.13;;;;;;;;;;5151480;27;20045;-53
2022/10/05 01:22:35;;;;;;;;;;;;;;;;;;;;;
2022/10/05 01:25:20;;;;;;;4.47;3.67;;;;;;;;;;5143418;27;20077;-55
2022/10/05 01:28:13;;;;;;;4.57;4.07;;;;;;;;;;5110516;27;20047;-52
2022/10/05 01:31:01;;;;;;;5.80;4.07;;;;;;;;;;5151024;27;20047;-53
2022/10/05 01:36:56;;;;;;;6.47;4.70;;;;;;;;;;5150394;27;20030;-55
2022/10/05 01:42:54;;;;;;;7.43;5.35;;;;;;;;;;5102927;27;20027;-53
2022/10/05 01:45:49;;;;;;;7.97;5.50;;;;;;;;;;5150002;27;20111;-54
2022/10/05 01:48:55;;;;;;;5.20;4.38;;;;;;;;;;5151270;27;20019;-55
2022/10/05 02:01:35;;;;;;;;;;;;;;;;;;;;;
2022/10/05 02:04:37;;;;;;;7.28;5.15;;;;;;;;;;5067364;28;20076;-54
2022/10/05 02:12:55;;;;;;;5.68;5.07;;;;;;;;;;5067358;28;20059;-53
2022/10/05 02:22:56;;;;;;;10.18;6.80;;;;;;;;;;5056598;28;20032;-54
2022/10/05 02:28:43;;;;;;;7.07;5.25;;;;;;;;;;5104941;28;20062;-53
2022/10/05 02:34:39;;;;;;;8.00;5.10;;;;;;;;;;5084625;28;20044;-55
2022/10/05 02:37:36;;;;;;;;;;;;;;;;;;;;;
2022/10/05 02:40:31;;;;;;;7.22;5.68;;;;;;;;;;5085030;28;20059;-53
2022/10/05 02:49:42;;;;;;;8.68;5.78;;;;;;;;;;5086682;28;20667;-53
2022/10/05 02:52:34;;;;;;;7.57;6.32;;;;;;;;;;5086860;28;20063;-55
2022/10/05 02:55:31;;;;;;;6.47;5.55;;;;;;;;;;5079965;28;20571;-55
2022/10/05 02:58:36;;;;;;;7.25;6.03;;;;;;;;;;5127837;28;20027;-52
2022/10/05 03:07:56;;;;;;;6.38;5.68;;;;;;;;;;5114691;27;20084;-55
2022/10/05 03:10:41;;;;;;;7.55;5.93;;;;;;;;;;5046257;28;20029;-55
2022/10/05 03:13:43;;;;;;;9.20;6.40;;;;;;;;;;5046877;28;20034;-51
2022/10/05 03:16:31;;;;;;;7.07;6.13;;;;;;;;;;5081843;28;20037;-52
2022/10/05 03:19:31;;;;;;;6.88;6.13;;;;;;;;;;5069084;28;20040;-54
2022/10/05 03:22:29;;;;;;;9.00;6.03;;;;;;;;;;5086161;28;20426;-52
2022/10/05 03:25:26;;;;;;;9.70;7.18;;;;;;;;;;5131369;28;20060;-53
2022/10/05 03:31:16;;;;;;;6.32;5.65;;;;;;;;;;5105771;27;20103;-53
2022/10/05 03:34:00;;;;;;;7.60;6.88;;;;;;;;;;5135697;28;20038;-54
2022/10/05 03:37:02;;;;;;;11.32;6.68;;;;;;;;;;5134395;28;20039;-55
2022/10/05 03:39:55;;;;;;;8.05;6.93;;;;;;;;;;5032318;28;20079;-53
2022/10/05 03:42:34;;;;;;;7.28;6.53;;;;;;;;;;5133457;28;20509;-54
2022/10/05 03:45:20;;;;;;;9.25;6.75;;;;;;;;;;5134606;28;20572;-54
2022/10/05 03:47:56;;;;;;;8.00;5.88;;;;;;;;;;5136194;28;20023;-52
2022/10/05 03:50:41;;;;;;;6.68;5.97;;;;;;;;;;5141802;28;20019;-54
2022/10/05 03:56:33;;;;;;;6.90;5.97;;;;;;;;;;5134722;27;20046;-50
2022/10/05 03:59:30;;;;;;;9.05;7.13;;;;;;;;;;5138646;27;20027;-51
2022/10/05 04:02:16;;;;;;;7.22;6.53;;;;;;;;;;5099404;27;20459;-55
2022/10/05 04:05:12;;;;;;;9.68;6.38;;;;;;;;;;5119922;27;20038;-54
2022/10/05 04:08:03;;;;;;;;;;;;;;;;;;;;;
2022/10/05 04:13:58;;;;;;;7.30;6.30;;;;;;;;;;5055058;28;20057;-55
2022/10/05 04:16:31;;;;;;;7.88;6.38;;;;;;;;;;5099103;28;20464;-55
2022/10/05 04:19:06;;;;;;;7.82;7.03;;;;;;;;;;5116624;28;20032;-55
2022/10/05 04:21:50;;;;;;;7.43;6.63;;;;;;;;;;5096617;28;20472;-53
2022/10/05 04:24:41;;;;;;;13.95;6.82;;;;;;;;;;5115945;28;20031;-55
2022/10/05 04:27:28;;;;;;;10.18;6.43;;;;;;;;;;5097525;28;20478;-54
2022/10/05 04:30:29;;;;;;;7.28;5.88;;;;;;;;;;5084943;28;20035;-54
2022/10/05 04:42:19;;;;;;;9.93;4.97;;;;;;;;;;5127558;27;20102;-54
2022/10/05 04:45:09;;;;;;;8.68;6.78;;;;;;;;;;5081603;27;20034;-54
2022/10/05 04:48:02;;;;;;;9.40;6.65;;;;;;;;;;5137770;27;20081;-51
2022/10/05 04:50:53;;;;;;;5.47;4.70;;;;;;;;;;5138155;27;20058;-54
2022/10/05 04:53:51;;;;;;;9.27;5.95;;;;;;;;;;5101450;27;20042;-53
2022/10/05 05:03:07;;;;;;;7.32;6.50;;;;;;;;;;5094220;28;20040;-52
2022/10/05 05:05:49;;;;;;;6.20;5.10;;;;;;;;;;5116856;27;20471;-54
2022/10/05 05:08:55;;;;;;;5.80;5.07;;;;;;;;;;5137398;27;20031;-53
2022/10/05 05:14:38;;;;;;;8.50;5.75;;;;;;;;;;5137792;27;20050;-55
2022/10/05 05:17:22;;;;;;;6.78;5.40;;;;;;;;;;5138007;27;20035;-54
2022/10/05 05:20:10;;;;;;;6.32;5.57;;;;;;;;;;5137626;27;20058;-54
2022/10/05 05:23:01;;;;;;;7.55;6.38;;;;;;;;;;5136313;27;20564;-54
2022/10/05 05:26:02;;;;;;;9.00;6.38;;;;;;;;;;5118774;27;20097;-52
2022/10/05 05:29:06;;;;;;;;;;;;;;;;;;;;;
2022/10/05 05:32:01;;;;;;;;;;;;;;;;;;;;;
2022/10/05 05:37:57;;;;;;;7.68;6.80;;;;;;;;;;5137229;27;20072;-55
2022/10/05 05:40:44;;;;;;;7.50;5.93;;;;;;;;;;5138014;27;20019;-55
2022/10/05 05:43:39;;;;;;;7.20;6.22;;;;;;;;;;5120593;27;20027;-55
2022/10/05 05:46:20;;;;;;;;;;;;;;;;;;;;;
2022/10/05 05:48:52;;;;;;;10.98;7.95;;;;;;;;;;5136617;27;20117;-53
2022/10/05 05:51:46;;;;;;;8.52;6.07;;;;;;;;;;5119171;27;20027;-54
2022/10/05 05:57:24;;;;;;;10.82;7.38;;;;;;;;;;5137039;27;20451;-53
2022/10/05 06:00:25;;;;;;;12.23;7.78;;;;;;;;;;5118244;27;20047;-52
2022/10/05 06:06:04;;;;;;;9.27;6.72;;;;;;;;;;5129119;27;20020;-55
2022/10/05 06:15:01;;;;;;;9.30;8.13;;;;;;;;;;5135336;27;20061;-57
2022/10/05 06:17:45;;;;;;;8.40;7.38;;;;;;;;;;5136188;27;20030;-55
2022/10/05 06:20:30;;;;;;;8.45;7.65;;;;;;;;;;5134957;27;20066;-55
2022/10/05 06:23:11;;;;;;;;;;;;;;;;;;;;;
2022/10/05 06:26:08;;;;;;;;;;;;;;;;;;;;;
2022/10/05 06:28:53;;;;;;;10.73;8.75;;;;;;;;;;5101692;27;20031;-56
2022/10/05 06:31:54;;;;;;;9.25;7.78;;;;;;;;;;5116789;27;20472;-53
2022/10/05 06:34:40;;;;;;;11.98;9.50;;;;;;;;;;5115381;28;20123;-53
2022/10/05 06:37:27;;;;;;;9.52;8.50;;;;;;;;;;5115144;28;20112;-54
2022/10/05 06:40:34;;;;;;;18.88;8.60;;;;;;;;;;5091277;28;20485;-53
2022/10/05 06:43:25;;;;;;;12.38;9.55;;;;;;;;;;5112949;28;20031;-55
2022/10/05 06:46:24;;;;;;;16.17;9.07;;;;;;;;;;5091448;28;20438;-56
2022/10/05 06:49:22;;;;;;;12.45;9.10;;;;;;;;;;5114843;28;20012;-55
2022/10/05 06:52:13;;;;;;;11.43;9.57;;;;;;;;;;5074072;28;20504;-57
2022/10/05 06:54:44;;;;;;;;;;;;;;;;;;5114875;28;20023;-56
2022/10/05 06:57:32;;;;;;;14.02;8.05;;;;;;;;;;5087475;28;19939;-54
2022/10/05 07:00:15;;;;;;;10.95;9.18;;;;;;;;;;5112313;28;20039;-53
2022/10/05 07:03:17;;;;;;;11.65;9.20;;;;;;;;;;5114341;28;20023;-54
2022/10/05 07:06:02;;;;;;;11.57;9.38;;;;;;;;;;5114156;28;20488;-55
2022/10/05 07:08:56;;;;;;;12.52;9.40;;;;;;;;;;5114974;28;20016;-54
2022/10/05 07:11:41;;;;;;;12.18;10.15;;;;;;;;;;5115033;28;20028;-53
2022/10/05 07:20:37;;;;;;;11.00;9.90;;;;;;;;;;5106778;28;20042;-56
2022/10/05 07:23:22;;;;;;;12.23;9.23;;;;;;;;;;5095433;28;20488;-54
2022/10/05 07:26:04;;;;;;;10.63;9.52;;;;;;;;;;5115012;28;20096;-56
2022/10/05 07:28:57;;;;;;;11.25;10.15;;;;;;;;;;5095991;28;20130;-55
2022/10/05 07:31:41;;;;;;;10.55;8.75;;;;;;;;;;5098030;28;20473;-55
2022/10/05 07:40:47;;;;;;;8.13;7.28;;;;;;;;;;5076077;28;20071;-53
2022/10/05 07:50:01;;;;;;;8.95;8.05;;;;;;;;;;5048369;28;20462;-58
2022/10/05 07:52:58;;;;;;;9.32;8.20;;;;;;;;;;5058857;28;20039;-58
2022/10/05 07:59:26;;;;;;;8.23;6.80;;;;;;;;;;5070645;28;20038;-58
2022/10/05 08:02:11;;;;;;;13.30;7.93;;;;;;;;;;4977363;28;20046;-58
2022/10/05 08:05:16;;;;;;;8.40;7.00;;;;;;;;;;4977551;28;20069;-55
2022/10/05 08:07:49;;;;;;;10.23;6.97;;;;;;;;;;4904385;29;20745;-58
2022/10/05 08:10:44;;;;;;;8.18;6.63;;;;;;;;;;4999323;27;20499;-58
2022/10/05 08:13:40;;;;;;;;;;;;;;;;;;;;;
2022/10/05 08:16:34;;;;;;;11.27;8.18;;;;;;;;;;5133915;27;20114;-58
2022/10/05 08:19:14;;;;;;;7.47;6.28;;;;;;;;;;5139339;27;20027;-58
2022/10/05 08:25:25;;;;;;;7.68;5.72;;;;;;;;;;5104675;27;20034;-59
2022/10/05 08:28:19;;;;;;;7.10;5.95;;;;;;;;;;5101376;27;20396;-59
2022/10/05 08:31:14;;;;;;;7.82;6.35;;;;;;;;;;5137844;27;20019;-59
2022/10/05 08:34:20;;;;;;;7.63;6.50;;;;;;;;;;5118332;27;20121;-60
2022/10/05 08:36:55;;;;;;;7.32;5.75;;;;;;;;;;5021043;28;20507;-59
2022/10/05 08:42:54;;;;;;;7.40;6.47;;;;;;;;;;5028347;28;20146;-60
2022/10/05 08:45:49;;;;;;;10.52;7.22;;;;;;;;;;5034219;28;20041;-59
2022/10/05 08:48:37;;;;;;;6.30;5.50;;;;;;;;;;5034107;28;20026;-59
2022/10/05 08:54:34;;;;;;;9.60;6.55;;;;;;;;;;5034149;28;20040;-59
2022/10/05 08:57:14;;;;;;;11.40;6.00;;;;;;;;;;5034062;28;20025;-60
2022/10/05 08:59:59;;;;;;;6.93;6.25;;;;;;;;;;5018169;28;20017;-60
2022/10/05 09:02:53;;;;;;;11.32;5.20;;;;;;;;;;5118160;27;20027;-60
2022/10/05 09:05:57;;;;;;;7.15;5.68;;;;;;;;;;5137331;27;20023;-60
2022/10/05 09:08:46;;;;;;;9.13;5.53;;;;;;;;;;5137510;27;20102;-60
2022/10/05 09:11:41;;;;;;;;;;;;;;;;;;;;;
2022/10/05 09:14:27;;;;;;;7.82;4.93;;;;;;;;;;5129409;27;20031;-59
2022/10/05 09:17:12;;;;;;;9.07;5.20;;;;;;;;;;5137269;27;20023;-60
2022/10/05 09:20:09;;;;;;;5.50;4.80;;;;;;;;;;5132499;27;20131;-60
2022/10/05 09:23:13;;;;;;;7.88;5.00;;;;;;;;;;5117762;27;20027;-60
2022/10/05 09:25:51;;;;;;;4.90;4.18;;;;;;;;;;5084066;27;20422;-60
2022/10/05 09:28:39;;;;;;;6.97;4.47;;;;;;;;;;5138113;27;20115;-60
2022/10/05 09:31:36;;;;;;;;;;;;;;;;;;;;;
2022/10/05 09:34:45;;;;;;;6.15;4.13;;;;;;;;;;5115589;27;20048;-60
2022/10/05 09:37:41;;;;;;;4.45;3.60;;;;;;;;;;5098048;28;20047;-60
2022/10/05 09:40:35;;;;;;;5.55;3.92;;;;;;;;;;5116014;28;20110;-60
2022/10/05 09:43:29;;;;;;;5.30;4.32;;;;;;;;;;5129398;28;20098;-60
2022/10/05 09:46:17;;;;;;;4.57;3.33;;;;;;;;;;5129225;28;20035;-60
2022/10/05 09:49:06;;;;;;;4.25;3.30;;;;;;;;;;5110722;28;20015;-60
2022/10/05 09:51:54;;;;;;;9.38;3.53;;;;;;;;;;5128101;28;20024;-60
2022/10/05 09:54:51;;;;;;;5.10;2.45;;;;;;;;;;5127833;28;20043;-60
2022/10/05 09:57:38;;;;;;;3.50;3.03;;;;;;;;;;5108592;28;20102;-61
2022/10/05 10:00:28;;;;;;;7.07;4.13;;;;;;;;;;5108709;28;20019;-61
2022/10/05 10:03:13;;;;;;;3.72;2.80;;;;;;;;;;5129052;28;20023;-61
2022/10/05 10:06:09;;;;;;;3.88;2.97;;;;;;;;;;5128260;28;20036;-60
2022/10/05 10:11:51;;;;;;;3.47;2.92;;;;;;;;;;5116583;28;20023;-61
2022/10/05 10:20:57;;;;;;;6.55;1.40;;;;;;;;;;5105779;28;20020;-61
2022/10/05 10:23:54;;;;;;;2.78;1.50;;;;;;;;;;5122341;28;20526;-60
2022/10/05 10:35:51;;;;;;;2.53;1.73;;;;;;;;;;5128211;28;20043;-61
2022/10/05 10:38:27;;;;;;;1.98;1.17;;;;;;;;;;5107259;28;20036;-61
2022/10/05 10:41:17;;;;;;;2.65;1.95;;;;;;;;;;5098194;28;20042;-61
2022/10/05 10:47:16;;;;;;;2.33;1.52;;;;;;;;;;5115075;28;20468;-61
2022/10/05 10:50:10;;;;;;;2.63;1.50;;;;;;;;;;5114966;28;20011;-61
2022/10/05 10:56:13;;;;;;;2.85;1.65;;;;;;;;;;5112841;28;20027;-61
2022/10/05 10:59:01;;;;;;;3.33;1.90;;;;;;;;;;5115420;28;20024;-60
2022/10/05 11:05:12;;;;;;;3.00;1.77;;;;;;;;;;5115993;28;20039;-60
2022/10/05 11:08:13;;;;;;;6.20;1.98;;;;;;;;;;5115889;28;20545;-60
2022/10/05 11:10:57;;;;;;;1.90;1.48;;;;;;;;;;5096474;28;20550;-60
2022/10/05 11:13:41;;;;;;;2.60;1.48;;;;;;;;;;5080646;28;20039;-60
2022/10/05 11:16:44;;;;;;;2.70;1.40;;;;;;;;;;5090634;28;20496;-60
2022/10/05 11:22:42;;;;;;;2.10;1.38;;;;;;;;;;5115800;28;20035;-60
2022/10/05 11:28:40;;;;;;;2.40;1.55;;;;;;;;;;5101067;28;20067;-60
2022/10/05 11:31:25;;;;;;;4.38;1.50;;;;;;;;;;5095132;28;20036;-60
2022/10/05 11:34:10;;;;;;;2.00;1.10;;;;;;;;;;5082760;28;20074;-60
2022/10/05 11:43:15;;;;;;;4.55;1.42;;;;;;;;;;5092987;28;20036;-60
2022/10/05 11:58:39;;;;;;;2.60;1.30;;;;;;;;;;5011020;28;20053;-60
2022/10/05 12:08:12;;;;;;;2.42;1.73;;;;;;;;;;5134553;28;20101;-60
2022/10/05 12:14:44;;;;;;;2.45;1.60;;;;;;;;;;5134589;28;20155;-60
2022/10/05 12:17:45;;;;;;;3.22;1.70;;;;;;;;;;5134405;27;20024;-59
2022/10/05 12:20:40;;;;;;;2.72;1.40;;;;;;;;;;5119213;27;20110;-59
2022/10/05 12:23:29;;;;;;;1.52;0.90;;;;;;;;;;5115073;27;20032;-59
2022/10/05 12:26:26;;;;;;;2.30;1.60;;;;;;;;;;5138561;27;20030;-59
2022/10/05 12:29:05;;;;;;;2.40;1.55;;;;;;;;;;5138009;27;20023;-59
2022/10/05 12:31:59;;;;;;;8.77;1.65;;;;;;;;;;5116920;27;20024;-59
2022/10/05 12:34:53;;;;;;;2.38;1.40;;;;;;;;;;5119759;27;20452;-59
2022/10/05 12:40:38;;;;;;;2.25;1.20;;;;;;;;;;5094785;28;20094;-59
2022/10/05 12:43:22;;;;;;;2.13;1.30;;;;;;;;;;5135437;27;20034;-60
2022/10/05 12:46:18;;;;;;;4.05;1.50;;;;;;;;;;5138533;27;20023;-59
2022/10/05 12:49:17;;;;;;;1.75;1.13;;;;;;;;;;5138472;27;20031;-59
2022/10/05 12:52:03;;;;;;;2.92;1.33;;;;;;;;;;5119677;27;20488;-59
2022/10/05 12:55:04;;;;;;;;;;;;;;;;;;;;;
2022/10/05 12:57:51;;;;;;;1.83;1.08;;;;;;;;;;5137448;27;20037;-59
2022/10/05 13:00:28;;;;;;;;;;;;;;;;;;;;;
2022/10/05 13:03:20;;;;;;;1.70;0.75;;;;;;;;;;5137595;27;20016;-59
2022/10/05 13:09:22;;;;;;;3.72;1.10;;;;;;;;;;5030045;28;20025;-59
2022/10/05 13:12:16;;;;;;;;;;;;;;;;;;;;;
2022/10/05 13:15:04;;;;;;;2.33;0.40;;;;;;;;;;5134824;27;20491;-59
2022/10/05 13:17:50;;;;;;;1.63;0.73;;;;;;;;;;5138236;27;20027;-59
2022/10/05 13:20:35;;;;;;;1.60;0.60;;;;;;;;;;5118448;27;20434;-59
2022/10/05 13:23:28;;;;;;;;;;;;;;;;;;;;;
2022/10/05 13:29:44;;;;;;;;;;;;;;;;;;;;;
2022/10/05 13:32:29;;;;;;;1.38;0.45;;;;;;;;;;5138281;27;20106;-59
2022/10/05 13:35:25;;;;;;;0.95;0.30;;;;;;;;;;5136154;27;20096;-60
2022/10/05 13:38:02;;;;;;;1.10;0.52;;;;;;;;;;5136614;27;20072;-59
2022/10/05 13:40:57;;;;;;;1.20;0.50;;;;;;;;;;5138112;27;20379;-59
2022/10/05 13:49:53;;;;;;;0.98;0.38;;;;;;;;;;5137413;27;20094;-60
2022/10/05 13:52:55;;;;;;;0.65;0.38;;;;;;;;;;5093641;28;20028;-60
2022/10/05 13:55:53;;;;;;;0.93;0.52;;;;;;;;;;4997689;28;20049;-59
2022/10/05 13:58:38;;;;;;;1.45;0.70;;;;;;;;;;5001443;28;20034;-60
2022/10/05 14:01:39;;;;;;;1.58;0.40;;;;;;;;;;5014643;28;20026;-60
2022/10/05 14:04:16;;;;;;;1.15;0.50;;;;;;;;;;4960368;28;20602;-59
2022/10/05 14:07:10;;;;;;;1.50;0.63;;;;;;;;;;4955524;29;20047;-59
2022/10/05 14:13:08;;;;;;;1.45;0.50;;;;;;;;;;5025940;28;20036;-60
2022/10/05 14:18:24;;;;;;;2.30;0.70;;;;;;;;;;5093233;28;20039;-60
2022/10/05 14:24:25;;;;;;;1.40;0.80;;;;;;;;;;5092654;28;20032;-60
2022/10/05 14:30:07;;;;;;;2.42;0.55;;;;;;;;;;5092928;28;20035;-61
2022/10/05 14:36:01;;;;;;;3.22;1.17;;;;;;;;;;5080474;28;20484;-59
2022/10/05 14:39:05;;;;;;;;;;;;;;;;;;;;;
2022/10/05 14:41:41;;;;;;;1.73;0.70;;;;;;;;;;5025488;28;20074;-59
2022/10/05 14:44:38;;;;;;;3.45;1.15;;;;;;;;;;5093119;28;20416;-59
2022/10/05 14:47:33;;;;;;;1.25;0.75;;;;;;;;;;5092511;28;20119;-59
2022/10/05 14:50:25;;;;;;;2.33;0.63;;;;;;;;;;5076155;28;20100;-59
2022/10/05 14:53:23;;;;;;;;;;;;;;;;;;;;;
2022/10/05 14:56:25;;;;;;;;;;;;;;;;;;;;;
2022/10/05 15:02:09;;;;;;;1.02;0.57;;;;;;;;;;5119977;27;20041;-61
2022/10/05 15:04:43;;;;;;;2.15;0.75;;;;;;;;;;5078734;27;20426;-61
2022/10/05 15:10:25;;;;;;;1.08;0.57;;;;;;;;;;5119912;27;20115;-61
2022/10/05 15:13:10;;;;;;;1.30;0.50;;;;;;;;;;5085268;27;20058;-59
2022/10/05 15:22:21;;;;;;;2.35;0.75;;;;;;;;;;5134793;27;20026;-60
2022/10/05 15:25:14;;;;;;;1.75;0.70;;;;;;;;;;5135503;28;20019;-60
2022/10/05 15:31:02;;;;;;;3.20;1.00;;;;;;;;;;5135096;28;20031;-60
2022/10/05 15:33:57;;;;;;;1.75;0.60;;;;;;;;;;5046683;28;20049;-60
2022/10/05 15:36:51;;;;;;;3.90;0.80;;;;;;;;;;5102420;28;20035;-60
2022/10/05 15:39:45;;;;;;;2.72;1.13;;;;;;;;;;5135619;28;20035;-60
2022/10/05 15:42:19;;;;;;;1.77;0.70;;;;;;;;;;5135532;28;20031;-60
2022/10/05 15:45:19;;;;;;;1.23;0.50;;;;;;;;;;5135671;28;20022;-60
2022/10/05 15:51:09;;;;;;;6.10;0.75;;;;;;;;;;5051580;28;20029;-60
2022/10/05 15:54:39;;;;;;;1.08;0.55;;;;;;;;;;5059053;27;20027;-60
2022/10/05 15:56:55;;;;;;;3.17;0.60;;;;;;;;;;5131884;27;20505;-60
2022/10/05 15:59:49;;;;;;;0.98;0.60;;;;;;;;;;5139979;27;20386;-60
2022/10/05 16:02:52;;;;;;;1.65;0.73;;;;;;;;;;5139138;27;20030;-61
2022/10/05 16:08:57;;;;;;;1.40;0.65;;;;;;;;;;5139233;27;20026;-62
2022/10/05 16:11:47;;;;;;;4.20;1.00;;;;;;;;;;5140101;27;20023;-59
2022/10/05 16:14:34;;;;;;;1.40;0.68;;;;;;;;;;5120629;27;20062;-59
2022/10/05 16:17:23;;;;;;;1.23;0.65;;;;;;;;;;5139018;27;20061;-59
2022/10/05 16:20:13;;;;;;;0.98;0.50;;;;;;;;;;5117659;27;20042;-60
2022/10/05 16:22:58;;;;;;;1.73;0.93;;;;;;;;;;5143772;27;20055;-60
2022/10/05 16:31:36;;;;;;;1.60;0.63;;;;;;;;;;5138241;27;19936;-60
2022/10/05 16:34:30;;;;;;;1.67;0.73;;;;;;;;;;5117728;27;20047;-60
2022/10/05 16:40:11;;;;;;;3.17;0.82;;;;;;;;;;5137804;27;20115;-60
2022/10/05 16:43:25;;;;;;;;;;;;;;;;;;;;;
2022/10/05 16:46:10;;;;;;;;;;;;;;;;;;;;;
2022/10/05 16:52:06;;;;;;;2.28;0.90;;;;;;;;;;5043058;27;20391;-60
2022/10/05 16:55:06;;;;;;;2.03;1.02;;;;;;;;;;5137537;27;20540;-60
2022/10/05 17:06:59;;;;;;;2.03;1.30;;;;;;;;;;5129031;27;20485;-60
2022/10/05 17:09:43;;;;;;;1.73;0.80;;;;;;;;;;5137771;27;20051;-60
2022/10/05 17:12:46;;;;;;;1.85;0.80;;;;;;;;;;5138197;27;20460;-60
2022/10/05 17:15:36;;;;;;;1.55;0.93;;;;;;;;;;5137790;27;20019;-60
2022/10/05 17:18:43;;;;;;;2.92;0.98;;;;;;;;;;5119017;27;20039;-61
2022/10/05 17:21:37;;;;;;;1.48;0.77;;;;;;;;;;5137791;27;20182;-61
2022/10/05 17:24:44;;;;;;;2.40;1.20;;;;;;;;;;5100963;27;20548;-61
2022/10/05 17:27:34;;;;;;;1.60;0.70;;;;;;;;;;5136281;27;20103;-61
2022/10/05 17:30:38;;;;;;;1.50;0.88;;;;;;;;;;5138002;27;20066;-61
2022/10/05 17:33:42;;;;;;;1.63;0.70;;;;;;;;;;5136727;27;20023;-61
2022/10/05 17:36:29;;;;;;;1.13;0.55;;;;;;;;;;5135510;27;20055;-61
2022/10/05 17:39:17;;;;;;;1.13;0.63;;;;;;;;;;5118813;27;20476;-60
2022/10/05 17:42:19;;;;;;;1.90;0.80;;;;;;;;;;5137078;27;20023;-60
2022/10/05 17:45:01;;;;;;;2.33;1.00;;;;;;;;;;5136873;27;20023;-60
2022/10/05 17:57:03;;;;;;;3.30;1.33;;;;;;;;;;5136855;27;20122;-61
2022/10/05 18:00:00;;;;;;;5.82;1.02;;;;;;;;;;5119489;27;20087;-60
2022/10/05 18:02:44;;;;;;;1.77;0.82;;;;;;;;;;5115711;27;20035;-61
2022/10/05 18:05:26;;;;;;;2.35;1.52;;;;;;;;;;5136860;27;20030;-60
2022/10/05 18:11:35;;;;;;;1.15;0.60;;;;;;;;;;5093618;28;20023;-60
2022/10/05 18:17:44;;;;;;;1.88;1.05;;;;;;;;;;5092328;28;20359;-61
2022/10/05 18:20:44;;;;;;;2.97;0.98;;;;;;;;;;5068944;28;20188;-61
2022/10/05 18:23:43;;;;;;;2.20;1.10;;;;;;;;;;5076426;28;20047;-61
2022/10/05 18:32:22;;;;;;;1.73;0.50;;;;;;;;;;5093457;28;20134;-61
2022/10/05 18:35:09;;;;;;;1.45;0.85;;;;;;;;;;5070830;28;20548;-61
2022/10/05 18:40:50;;;;;;;2.65;1.20;;;;;;;;;;5136539;27;20073;-61
2022/10/05 18:43:39;;;;;;;2.05;1.17;;;;;;;;;;5122734;27;20033;-61
2022/10/05 18:46:24;;;;;;;2.03;1.60;;;;;;;;;;5117089;27;20062;-61
2022/10/05 18:49:26;;;;;;;2.75;1.63;;;;;;;;;;5135873;27;20042;-61
2022/10/05 18:52:17;;;;;;;2.53;1.40;;;;;;;;;;5135963;27;20025;-60
2022/10/05 18:55:11;;;;;;;2.13;0.93;;;;;;;;;;5135538;27;20083;-61
2022/10/05 18:57:59;;;;;;;2.08;1.15;;;;;;;;;;5114099;27;20027;-61
2022/10/05 19:03:55;;;;;;;1.73;1.02;;;;;;;;;;5092574;27;20406;-61
2022/10/05 19:06:58;;;;;;;2.92;1.33;;;;;;;;;;5101784;27;20118;-61
2022/10/05 19:09:41;;;;;;;;;;;;;;;;;;;;;
2022/10/05 19:12:35;;;;;;;2.00;1.45;;;;;;;;;;5135155;27;20363;-61
2022/10/05 19:15:29;;;;;;;;;;;;;;;;;;;;;
2022/10/05 19:18:25;;;;;;;3.28;0.95;;;;;;;;;;5086495;27;20035;-61
2022/10/05 19:21:20;;;;;;;2.67;1.35;;;;;;;;;;5124798;27;20063;-61
2022/10/05 19:27:30;;;;;;;2.05;1.20;;;;;;;;;;5110686;27;20495;-60
2022/10/05 19:29:59;;;;;;;;;;;;;;;;;;5116371;28;20480;-60
2022/10/05 19:32:45;;;;;;;2.78;1.27;;;;;;;;;;5135207;28;19910;-59
2022/10/05 19:38:51;;;;;;;2.70;1.13;;;;;;;;;;5135173;28;20534;-60
2022/10/05 19:42:08;;;;;;;4.05;1.08;;;;;;;;;;5135273;28;20036;-60
2022/10/05 19:51:16;;;;;;;2.47;1.25;;;;;;;;;;5135703;28;20027;-60
2022/10/05 19:54:19;;;;;;;2.20;1.02;;;;;;;;;;5135676;28;20068;-60
2022/10/05 19:57:03;;;;;;;1.75;1.20;;;;;;;;;;5115726;28;20511;-63
2022/10/05 19:59:48;;;;;;;;;;;;;;;;;;;;;
2022/10/05 20:02:59;;;;;;;;;;;;;;;;;;;;;
2022/10/05 20:05:44;;;;;;;6.32;1.73;;;;;;;;;;5124436;28;20027;-60
2022/10/05 20:08:25;;;;;;;4.57;1.48;;;;;;;;;;5117309;28;20038;-60
2022/10/05 20:11:24;;;;;;;4.85;1.55;;;;;;;;;;5115967;28;20548;-60
2022/10/05 20:14:10;;;;;;;2.70;1.77;;;;;;;;;;5135044;28;20034;-61
2022/10/05 20:23:01;;;;;;;3.60;1.83;;;;;;;;;;5135228;28;20030;-60
2022/10/05 20:31:45;;;;;;;;;;;;;;;;;;5038864;28;20068;-60
2022/10/05 20:40:29;;;;;;;3.22;1.52;;;;;;;;;;5068372;28;20093;-60
2022/10/05 20:43:38;;;;;;;6.85;2.08;;;;;;;;;;5118419;28;20353;-60
2022/10/05 20:46:22;;;;;;;1.92;1.48;;;;;;;;;;5097086;28;20483;-60
2022/10/05 20:52:15;;;;;;;3.23;2.33;;;;;;;;;;5113542;28;20032;-60
2022/10/05 20:55:08;;;;;;;;;;;;;;;;;;;;;
2022/10/05 20:57:58;;;;;;;5.10;2.08;;;;;;;;;;5095792;28;20111;-60
2022/10/05 21:06:19;;;;;;;2.67;1.65;;;;;;;;;;5068782;28;20422;-60
2022/10/05 21:12:20;;;;;;;2.92;1.67;;;;;;;;;;5055978;28;20029;-60
2022/10/05 21:15:05;;;;;;;3.28;2.00;;;;;;;;;;5069104;28;20032;-60
2022/10/05 21:21:13;;;;;;;3.53;1.88;;;;;;;;;;5038605;28;20040;-60
2022/10/05 21:27:03;;;;;;;2.38;1.40;;;;;;;;;;5078761;28;20061;-60
2022/10/05 21:30:13;;;;;;;2.40;1.58;;;;;;;;;;5113506;28;20023;-60
2022/10/05 21:33:18;;;;;;;2.95;1.40;;;;;;;;;;5131310;28;20034;-60
2022/10/05 21:35:57;;;;;;;3.35;1.77;;;;;;;;;;5034181;28;20053;-60
2022/10/05 21:38:39;;;;;;;4.28;2.00;;;;;;;;;;5041088;28;20044;-60
2022/10/05 21:44:25;;;;;;;2.40;1.58;;;;;;;;;;5131189;28;20034;-60
2022/10/05 21:47:00;;;;;;;2.60;1.77;;;;;;;;;;5030683;28;20052;-60
2022/10/05 21:49:42;;;;;;;2.30;1.30;;;;;;;;;;5030048;28;20057;-60
2022/10/05 21:52:38;;;;;;;2.40;1.70;;;;;;;;;;5048697;28;20482;-60
2022/10/05 21:55:34;;;;;;;3.03;1.98;;;;;;;;;;5036238;28;20026;-60
2022/10/05 21:58:08;;;;;;;10.52;2.40;;;;;;;;;;5048643;28;20053;-60
2022/10/05 22:00:46;;;;;;;3.65;1.75;;;;;;;;;;5105031;28;20036;-60
2022/10/05 22:03:36;;;;;;;2.10;1.40;;;;;;;;;;5131130;28;20097;-60
2022/10/05 22:06:14;;;;;;;3.17;2.05;;;;;;;;;;5131220;28;20086;-60
2022/10/05 22:09:12;;;;;;;;;;;;;;;;;;;;;
2022/10/05 22:12:10;;;;;;;3.00;1.80;;;;;;;;;;5107348;28;20071;-60
2022/10/05 22:14:45;;;;;;;3.08;1.63;;;;;;;;;;5124286;28;20028;-60
2022/10/05 22:17:44;;;;;;;;;;;;;;;;;;;;;
2022/10/05 22:20:34;;;;;;;;;;;;;;;;;;;;;
2022/10/05 22:23:08;;;;;;;4.18;2.10;;;;;;;;;;5125134;28;20064;-60
2022/10/05 22:28:33;;;;;;;2.78;1.90;;;;;;;;;;5129391;28;20076;-60
2022/10/05 22:34:38;;;;;;;5.28;2.45;;;;;;;;;;5043764;28;20116;-60
2022/10/05 22:37:31;;;;;;;5.00;2.17;;;;;;;;;;5066957;28;20055;-60
2022/10/05 22:40:21;;;;;;;5.43;2.33;;;;;;;;;;5050286;28;20155;-60
2022/10/05 22:48:58;;;;;;;4.00;2.55;;;;;;;;;;5014334;28;20030;-60
2022/10/05 22:51:29;;;;;;;3.25;1.83;;;;;;;;;;5027710;28;20042;-60
2022/10/05 22:54:26;;;;;;;3.45;2.20;;;;;;;;;;5010457;28;20047;-60
2022/10/05 22:57:20;;;;;;;2.30;1.75;;;;;;;;;;5030348;28;20042;-60
2022/10/05 23:03:03;;;;;;;3.72;2.42;;;;;;;;;;5123644;27;20061;-60
2022/10/05 23:05:59;;;;;;;5.05;2.15;;;;;;;;;;5150182;27;20054;-60
2022/10/05 23:08:41;;;;;;;3.95;3.13;;;;;;;;;;5149727;27;20345;-60
2022/10/05 23:14:12;;;;;;;;;;;;;;;;;;;;;
2022/10/05 23:16:54;;;;;;;2.70;1.77;;;;;;;;;;5063405;28;20069;-60
2022/10/05 23:19:27;;;;;;;5.43;2.55;;;;;;;;;;5149973;27;20027;-60
2022/10/05 23:25:02;;;;;;;5.70;2.50;;;;;;;;;;5149889;27;20038;-60
2022/10/05 23:28:00;;;;;;;3.80;2.17;;;;;;;;;;5149498;28;20039;-60
2022/10/05 23:33:57;;;;;;;2.42;1.70;;;;;;;;;;5149674;28;20034;-60
2022/10/05 23:36:59;;;;;;;4.05;2.75;;;;;;;;;;5149325;28;20372;-60
2022/10/05 23:43:06;;;;;;;3.88;2.20;;;;;;;;;;4992210;28;20043;-60
2022/10/05 23:48:36;;;;;;;4.20;2.35;;;;;;;;;;5149172;28;20060;-60
2022/10/05 23:51:30;;;;;;;3.35;1.85;;;;;;;;;;5130250;28;20107;-60
2022/10/05 23:54:52;;;;;;;;;;;;;;;;;;;;;
